createdAt,value
2023-01-01T00:02:20.158Z,12.99
2023-01-01T00:07:22.235Z,12.93
2023-01-01T00:12:34.697Z,12.87
2023-01-01T00:17:40.522Z,12.82
2023-01-01T00:22:56.475Z,12.78
2023-01-01T00:28:02.518Z,12.75
2023-01-01T00:33:04.420Z,12.69
2023-01-01T00:38:09.389Z,12.59
2023-01-01T00:43:11.275Z,12.52
2023-01-01T00:48:13.158Z,12.41
2023-01-01T00:53:18.129Z,12.34
2023-01-01T00:58:20.073Z,12.25
2023-01-01T01:03:36.434Z,12.20
2023-01-01T01:08:46.455Z,12.21
2023-01-01T01:13:51.220Z,12.19
2023-01-01T01:18:55.367Z,12.17
2023-01-01T01:23:59.882Z,12.12
2023-01-01T01:29:06.551Z,12.07
2023-01-01T01:34:25.618Z,12.01
2023-01-01T01:39:32.299Z,11.97
2023-01-01T01:44:57.967Z,11.95
2023-01-01T01:50:39.804Z,11.93
2023-01-01T01:56:02.164Z,11.92
2023-01-01T02:05:27.852Z,11.93
2023-01-01T02:10:36.451Z,11.92
2023-01-01T02:16:00.457Z,11.92
2023-01-01T02:21:16.382Z,11.92
2023-01-01T02:26:51.969Z,11.91
2023-01-01T02:32:17.748Z,11.91
2023-01-01T02:37:24.500Z,11.87
2023-01-01T02:42:29.968Z,11.83
2023-01-01T02:47:31.827Z,11.79
2023-01-01T02:52:58.008Z,11.79
2023-01-01T02:58:36.541Z,11.83
2023-01-01T03:03:53.772Z,11.93
2023-01-01T03:09:36.348Z,12.01
2023-01-01T03:14:54.632Z,12.07
2023-01-01T03:20:14.038Z,12.15
2023-01-01T03:25:29.780Z,12.18
2023-01-01T03:30:37.705Z,12.19
2023-01-01T03:35:47.169Z,12.18
2023-01-01T03:40:56.798Z,12.18
2023-01-01T03:46:00.968Z,12.15
2023-01-01T03:51:14.858Z,12.11
2023-01-01T03:56:30.149Z,12.06
2023-01-01T04:01:41.553Z,12.00
2023-01-01T04:06:44.216Z,11.97
2023-01-01T04:12:04.294Z,11.91
2023-01-01T04:17:08.358Z,11.90
2023-01-01T04:22:10.444Z,11.83
2023-01-01T04:27:12.292Z,11.84
2023-01-01T04:32:14.273Z,11.82
2023-01-01T04:37:25.075Z,11.76
2023-01-01T04:42:26.999Z,11.70
2023-01-01T04:47:28.919Z,11.65
2023-01-01T04:52:30.873Z,11.58
2023-01-01T04:57:32.795Z,11.49
2023-01-01T05:09:06.575Z,11.26
2023-01-01T05:14:11.318Z,11.21
2023-01-01T05:39:05.774Z,11.23
2023-01-01T05:44:12.291Z,11.27
2023-01-01T05:49:17.723Z,11.28
2023-01-01T05:59:45.014Z,11.33
2023-01-01T06:04:49.347Z,11.33
2023-01-01T06:10:00.911Z,11.35
2023-01-01T06:15:07.312Z,11.38
2023-01-01T06:20:14.787Z,11.38
2023-01-01T06:25:23.272Z,11.31
2023-01-01T06:30:29.368Z,11.27
2023-01-01T06:35:36.175Z,11.24
2023-01-01T06:40:42.758Z,11.22
2023-01-01T06:45:45.920Z,11.19
2023-01-01T06:50:50.017Z,11.17
2023-01-01T06:55:57.575Z,11.15
2023-01-01T07:01:16.849Z,11.14
2023-01-01T07:06:29.113Z,11.14
2023-01-01T07:11:38.567Z,11.10
2023-01-01T07:16:44.754Z,11.04
2023-01-01T07:21:54.926Z,10.96
2023-01-01T07:27:01.628Z,10.89
2023-01-01T07:32:07.559Z,10.87
2023-01-01T07:37:14.833Z,10.87
2023-01-01T07:42:32.320Z,10.88
2023-01-01T07:47:38.614Z,10.93
2023-01-01T07:58:12.810Z,11.01
2023-01-01T08:03:19.024Z,11.02
2023-01-01T08:08:26.409Z,11.07
2023-01-01T08:13:37.324Z,11.09
2023-01-01T08:18:44.270Z,11.11
2023-01-01T08:23:52.963Z,11.17
2023-01-01T08:29:03.942Z,11.20
2023-01-01T08:34:14.855Z,11.27
2023-01-01T08:39:27.678Z,11.33
2023-01-01T08:44:34.838Z,11.38
2023-01-01T08:49:44.019Z,11.45
2023-01-01T08:54:52.289Z,11.54
2023-01-01T08:59:55.496Z,11.64
2023-01-01T09:04:59.680Z,11.72
2023-01-01T09:10:04.231Z,11.79
2023-01-01T09:15:45.755Z,11.88
2023-01-01T09:20:49.092Z,11.96
2023-01-01T09:25:56.942Z,12.07
2023-01-01T09:31:06.954Z,12.19
2023-01-01T09:36:38.623Z,12.30
2023-01-01T09:42:01.382Z,12.37
2023-01-01T09:47:16.154Z,12.44
2023-01-01T09:52:23.695Z,12.51
2023-01-01T09:57:54.678Z,12.56
2023-01-01T10:03:40.830Z,12.59
2023-01-01T10:09:12.141Z,12.68
2023-01-01T10:14:28.188Z,12.71
2023-01-01T10:19:46.143Z,12.74
2023-01-01T10:25:10.216Z,12.80
2023-01-01T10:30:20.564Z,12.85
2023-01-01T10:35:37.789Z,13.01
2023-01-01T10:40:40.180Z,13.23
2023-01-01T10:45:56.179Z,13.57
2023-01-01T10:51:07.378Z,13.84
2023-01-01T10:56:24.544Z,14.10
2023-01-01T11:01:36.988Z,14.28
2023-01-01T11:06:47.530Z,14.42
2023-01-01T11:12:11.905Z,14.74
2023-01-01T11:17:28.880Z,15.23
2023-01-01T11:22:42.156Z,15.61
2023-01-01T11:27:50.982Z,15.97
2023-01-01T11:33:03.209Z,16.34
2023-01-01T11:38:27.580Z,17.00
2023-01-01T11:43:50.602Z,17.30
2023-01-01T11:48:54.973Z,17.62
2023-01-01T11:54:19.282Z,17.93
2023-01-01T11:59:40.396Z,17.91
2023-01-01T12:05:14.173Z,17.86
2023-01-01T12:10:28.408Z,17.63
2023-01-01T12:16:12.357Z,17.39
2023-01-01T12:21:36.158Z,17.23
2023-01-01T12:26:51.757Z,17.09
2023-01-01T12:32:29.407Z,16.98
2023-01-01T12:38:20.662Z,16.82
2023-01-01T12:44:01.949Z,16.70
2023-01-01T12:49:27.695Z,16.58
2023-01-01T12:55:13.872Z,16.48
2023-01-01T13:00:25.349Z,16.43
2023-01-01T13:05:44.206Z,16.42
2023-01-01T13:10:53.350Z,16.40
2023-01-01T13:15:59.195Z,16.39
2023-01-01T13:21:30.439Z,16.38
2023-01-01T13:26:41.705Z,16.41
2023-01-01T13:31:56.402Z,16.41
2023-01-01T13:37:28.140Z,16.40
2023-01-01T13:43:17.395Z,16.38
2023-01-01T13:48:26.933Z,16.37
2023-01-01T13:54:26.677Z,16.38
2023-01-01T14:00:01.674Z,16.39
2023-01-01T14:06:02.446Z,16.37
2023-01-01T14:11:31.519Z,16.34
2023-01-01T14:16:42.064Z,16.32
2023-01-01T14:22:04.121Z,16.32
2023-01-01T14:27:21.126Z,16.22
2023-01-01T14:32:37.850Z,16.20
2023-01-01T14:37:55.354Z,16.23
2023-01-01T14:43:09.804Z,16.33
2023-01-01T14:48:20.054Z,16.43
2023-01-01T14:53:37.068Z,16.46
2023-01-01T14:58:52.004Z,16.47
2023-01-01T15:04:06.049Z,16.46
2023-01-01T15:09:26.838Z,16.49
2023-01-01T15:14:38.598Z,16.46
2023-01-01T15:25:18.596Z,16.41
2023-01-01T15:30:33.850Z,16.34
2023-01-01T15:35:52.864Z,16.19
2023-01-01T15:41:21.008Z,16.02
2023-01-01T15:46:32.496Z,15.91
2023-01-01T15:51:47.275Z,15.86
2023-01-01T15:56:58.593Z,15.71
2023-01-01T16:02:26.390Z,15.55
2023-01-01T16:07:34.871Z,15.48
2023-01-01T16:12:44.330Z,15.42
2023-01-01T16:17:49.074Z,15.36
2023-01-01T16:22:59.075Z,15.28
2023-01-01T16:28:06.593Z,15.22
2023-01-01T16:33:17.654Z,15.15
2023-01-01T16:38:25.570Z,15.09
2023-01-01T16:43:32.465Z,15.02
2023-01-01T16:48:40.146Z,14.95
2023-01-01T16:53:53.442Z,14.91
2023-01-01T16:59:03.623Z,14.85
2023-01-01T17:04:15.209Z,14.82
2023-01-01T17:09:23.108Z,14.76
2023-01-01T17:14:31.103Z,14.71
2023-01-01T17:19:39.254Z,14.67
2023-01-01T17:24:43.794Z,14.64
2023-01-01T17:29:46.693Z,14.60
2023-01-01T17:45:28.436Z,14.52
2023-01-01T17:50:40.905Z,14.48
2023-01-01T17:55:49.749Z,14.45
2023-01-01T18:00:57.817Z,14.41
2023-01-01T18:06:01.072Z,14.36
2023-01-01T18:11:11.603Z,14.27
2023-01-01T18:16:22.992Z,14.16
2023-01-01T18:21:28.461Z,14.10
2023-01-01T18:26:34.688Z,14.06
2023-01-01T18:31:47.332Z,14.01
2023-01-01T18:37:22.380Z,13.95
2023-01-01T18:49:02.142Z,13.84
2023-01-01T18:54:14.653Z,13.80
2023-01-01T18:59:33.818Z,13.77
2023-01-01T19:04:51.221Z,13.70
2023-01-01T19:10:03.538Z,13.64
2023-01-01T19:15:24.437Z,13.57
2023-01-01T19:20:34.559Z,13.49
2023-01-01T19:25:41.894Z,13.39
2023-01-01T19:30:49.412Z,13.35
2023-01-01T19:35:55.967Z,13.31
2023-01-01T19:41:27.381Z,13.24
2023-01-01T19:46:39.172Z,13.17
2023-01-01T19:51:45.073Z,13.12
2023-01-01T19:56:49.962Z,13.07
2023-01-01T20:02:25.811Z,12.98
2023-01-01T20:07:21.871Z,12.91
2023-01-01T20:12:27.663Z,12.86
2023-01-01T20:17:37.781Z,12.79
2023-01-01T20:22:49.824Z,12.75
2023-01-01T20:28:14.495Z,12.69
2023-01-01T20:33:23.846Z,12.64
2023-01-01T20:38:29.298Z,12.59
2023-01-01T20:43:46.462Z,12.57
2023-01-01T20:48:52.391Z,12.53
2023-01-01T20:54:03.178Z,12.49
2023-01-01T20:59:31.478Z,12.47
2023-01-01T21:04:31.080Z,12.46
2023-01-01T21:09:47.088Z,12.44
2023-01-01T21:14:56.613Z,12.40
2023-01-01T21:20:07.491Z,12.40
2023-01-01T21:25:51.930Z,12.35
2023-01-01T21:31:03.304Z,12.32
2023-01-01T21:36:23.639Z,12.30
2023-01-01T21:41:32.566Z,12.27
2023-01-01T21:46:38.867Z,12.26
2023-01-01T21:51:55.515Z,12.26
2023-01-01T21:57:01.374Z,12.23
2023-01-01T22:02:18.592Z,12.19
2023-01-01T22:07:58.223Z,12.13
2023-01-01T22:13:17.074Z,12.07
2023-01-01T22:18:39.336Z,12.01
2023-01-01T22:23:43.237Z,11.95
2023-01-01T22:29:06.708Z,11.92
2023-01-01T22:34:26.790Z,11.85
2023-01-01T22:39:37.317Z,11.78
2023-01-01T22:44:44.196Z,11.71
2023-01-01T22:49:55.154Z,11.65
2023-01-01T22:55:02.839Z,11.62
2023-01-01T23:00:12.417Z,11.59
2023-01-01T23:05:23.463Z,11.57
2023-01-01T23:10:27.318Z,11.57
2023-01-01T23:15:55.620Z,11.54
2023-01-01T23:21:14.873Z,11.50
2023-01-01T23:26:20.006Z,11.54
2023-01-01T23:31:34.650Z,11.52
2023-01-01T23:36:41.515Z,11.49
2023-01-01T23:41:45.164Z,11.48
2023-01-01T23:46:57.245Z,11.48
2023-01-01T23:52:11.526Z,11.44
2023-01-01T23:57:16.952Z,11.42
